Time;durP1;ratioP1;P1;durP2;ratioP2;P2;SDS_P1;SDS_P2;PMS_P1;PMS_P2;Temp;Humidity;BMP_temperature;BMP_pressure;BME280_temperature;BME280_humidity;BME280_pressure;Samples;Min_cycle;Max_cycle;Signal;HPM_P1;HPM_P2
2021/05/16 00:01:13;;;;;;;8.60;3.37;;;12.80;99.90;;;;;;5076984;28;20834;-79
2021/05/16 00:03:40;;;;;;;8.40;3.50;;;12.80;99.90;;;;;;5073723;28;20511;-80
2021/05/16 00:06:07;;;;;;;14.57;3.40;;;12.70;99.90;;;;;;5075798;28;20566;-79
2021/05/16 00:08:33;;;;;;;11.53;3.27;;;12.70;99.90;;;;;;5074149;28;20464;-79
2021/05/16 00:11:01;;;;;;;7.60;3.60;;;12.70;99.90;;;;;;5072554;28;20915;-80
2021/05/16 00:13:27;;;;;;;7.83;3.27;;;12.80;99.90;;;;;;5078327;28;20977;-79
2021/05/16 00:15:54;;;;;;;10.73;3.13;;;12.80;99.90;;;;;;5081178;28;20449;-80
2021/05/16 00:18:21;;;;;;;5.77;2.97;;;12.80;99.90;;;;;;5075559;28;20827;-80
2021/05/16 00:20:47;;;;;;;13.10;3.93;;;12.80;99.90;;;;;;5076981;28;20473;-80
2021/05/16 00:23:14;;;;;;;6.27;3.07;;;12.80;99.90;;;;;;5070279;28;20546;-79
2021/05/16 00:25:41;;;;;;;8.37;3.27;;;12.80;99.90;;;;;;5076185;28;20549;-79
2021/05/16 00:28:07;;;;;;;12.60;3.33;;;12.80;99.90;;;;;;5078256;28;20450;-80
2021/05/16 00:30:34;;;;;;;9.43;2.90;;;12.80;99.90;;;;;;5078063;28;20498;-79
2021/05/16 00:33:01;;;;;;;6.57;2.70;;;12.80;99.90;;;;;;5074074;28;20578;-80
2021/05/16 00:35:31;;;;;;;11.00;3.63;;;12.80;99.90;;;;;;5080024;28;20557;-80
2021/05/16 00:37:58;;;;;;;7.30;2.30;;;12.80;99.90;;;;;;5072911;28;20958;-80
2021/05/16 00:40:25;;;;;;;8.87;4.00;;;12.90;99.90;;;;;;5074675;28;20462;-79
2021/05/16 00:42:51;;;;;;;11.70;2.87;;;12.90;99.90;;;;;;5068871;28;20930;-79
2021/05/16 00:45:20;;;;;;;10.30;3.20;;;12.90;99.90;;;;;;5079000;28;20486;-80
2021/05/16 00:47:49;;;;;;;9.20;3.80;;;12.90;99.90;;;;;;5080066;28;20602;-79
2021/05/16 00:50:17;;;;;;;7.70;2.20;;;12.90;99.90;;;;;;5079423;28;20575;-80
2021/05/16 00:52:44;;;;;;;6.30;2.97;;;12.90;99.90;;;;;;5076260;28;20500;-80
2021/05/16 00:55:12;;;;;;;10.07;3.07;;;12.80;99.90;;;;;;5069081;28;20470;-78
2021/05/16 00:57:39;;;;;;;8.20;2.50;;;12.80;99.90;;;;;;5076037;28;20503;-80
2021/05/16 01:00:07;;;;;;;7.50;3.17;;;12.80;99.90;;;;;;5071738;28;20463;-80
2021/05/16 01:02:33;;;;;;;10.03;3.70;;;12.80;99.90;;;;;;5075172;28;20459;-80
2021/05/16 01:05:00;;;;;;;10.97;3.30;;;12.70;99.90;;;;;;5076738;28;20842;-80
2021/05/16 01:07:27;;;;;;;12.20;2.90;;;12.70;99.90;;;;;;5069193;28;20459;-79
2021/05/16 01:09:55;;;;;;;7.27;2.57;;;12.70;99.90;;;;;;5078931;28;20450;-79
2021/05/16 01:12:29;;;;;;;11.07;2.67;;;12.70;99.90;;;;;;5075319;28;21014;-80
2021/05/16 01:14:57;;;;;;;7.80;3.40;;;12.70;99.90;;;;;;5074680;28;20504;-80
2021/05/16 01:17:23;;;;;;;13.43;3.77;;;12.60;99.90;;;;;;5084518;28;20882;-80
2021/05/16 01:19:50;;;;;;;8.70;2.60;;;12.60;99.90;;;;;;5080739;28;20514;-81
2021/05/16 01:22:17;;;;;;;8.57;2.83;;;12.60;99.90;;;;;;5072843;28;20877;-79
2021/05/16 01:24:47;;;;;;;4.80;3.10;;;12.60;99.90;;;;;;5072174;28;20253;-79
2021/05/16 01:27:15;;;;;;;6.47;2.60;;;12.60;99.90;;;;;;5075068;28;20503;-79
2021/05/16 01:29:42;;;;;;;8.40;2.83;;;12.60;99.90;;;;;;5077902;28;20283;-79
2021/05/16 01:32:11;;;;;;;12.70;3.93;;;12.60;99.90;;;;;;5072666;28;20490;-79
2021/05/16 01:34:39;;;;;;;10.00;2.90;;;12.50;99.90;;;;;;5075659;28;20489;-80
2021/05/16 01:37:06;;;;;;;6.90;3.60;;;12.50;99.90;;;;;;5071289;28;20455;-80
2021/05/16 01:39:34;;;;;;;5.33;2.70;;;12.50;99.90;;;;;;5072330;28;20953;-80
2021/05/16 01:42:00;;;;;;;10.07;3.20;;;12.50;99.90;;;;;;5079763;28;20967;-79
2021/05/16 01:44:27;;;;;;;9.93;3.40;;;12.50;99.90;;;;;;5071577;28;20465;-79
2021/05/16 01:46:54;;;;;;;8.60;3.00;;;12.40;99.90;;;;;;5077762;28;20539;-79
2021/05/16 01:49:20;;;;;;;12.03;3.63;;;12.40;99.90;;;;;;5075551;28;20497;-80
2021/05/16 01:51:47;;;;;;;12.35;3.00;;;12.40;99.90;;;;;;5074421;28;20479;-80
2021/05/16 01:54:15;;;;;;;5.73;2.90;;;12.40;99.90;;;;;;5074833;28;20652;-79
2021/05/16 01:56:42;;;;;;;9.13;3.20;;;12.40;99.90;;;;;;5071565;28;20827;-81
2021/05/16 01:59:08;;;;;;;11.80;3.40;;;12.40;99.90;;;;;;5069551;28;20820;-80
2021/05/16 02:01:35;;;;;;;9.98;2.70;;;12.40;99.90;;;;;;5078236;28;20226;-80
2021/05/16 02:04:02;;;;;;;14.30;4.80;;;12.40;99.90;;;;;;5073780;28;20196;-81
2021/05/16 02:06:29;;;;;;;10.20;3.40;;;12.40;99.90;;;;;;5075153;28;20264;-80
2021/05/16 02:08:56;;;;;;;6.23;2.80;;;12.30;99.90;;;;;;5073223;28;20669;-81
2021/05/16 02:11:23;;;;;;;11.40;4.33;;;12.30;99.90;;;;;;5075266;28;20485;-80
2021/05/16 02:13:50;;;;;;;10.10;3.50;;;12.30;99.90;;;;;;5075577;28;20483;-80
2021/05/16 02:16:18;;;;;;;10.73;2.88;;;12.30;99.90;;;;;;5074845;28;20489;-80
2021/05/16 02:18:44;;;;;;;7.90;3.35;;;12.30;99.90;;;;;;5066708;28;20193;-79
2021/05/16 02:21:11;;;;;;;8.73;3.67;;;12.30;99.90;;;;;;5080962;28;20318;-81
2021/05/16 02:23:39;;;;;;;6.85;2.97;;;12.30;99.90;;;;;;5076223;28;20193;-79
2021/05/16 02:26:07;;;;;;;9.30;2.97;;;12.30;99.90;;;;;;5073474;28;20210;-79
2021/05/16 02:28:34;;;;;;;11.00;2.60;;;12.30;99.90;;;;;;5072672;28;20216;-80
2021/05/16 02:31:10;;;;;;;7.10;3.13;;;12.30;99.90;;;;;;5072203;28;20551;-80
2021/05/16 02:33:36;;;;;;;7.37;2.50;;;12.30;99.90;;;;;;5075295;28;20199;-80
2021/05/16 02:36:04;;;;;;;4.90;2.60;;;12.30;99.90;;;;;;5074362;28;20484;-80
2021/05/16 02:38:30;;;;;;;9.53;3.10;;;12.30;99.90;;;;;;5075546;28;20501;-80
2021/05/16 02:40:57;;;;;;;7.70;2.80;;;12.30;99.90;;;;;;5071772;28;20825;-82
2021/05/16 02:43:23;;;;;;;10.07;2.15;;;12.30;99.90;;;;;;5074342;28;20462;-81
2021/05/16 02:45:50;;;;;;;7.43;2.70;;;12.30;99.90;;;;;;5075494;28;20223;-79
2021/05/16 02:48:17;;;;;;;5.97;2.53;;;12.30;99.90;;;;;;5078375;28;20238;-79
2021/05/16 02:50:43;;;;;;;7.47;3.15;;;12.30;99.90;;;;;;5066596;28;20544;-80
2021/05/16 02:53:10;;;;;;;6.47;2.92;;;12.30;99.90;;;;;;5071591;28;20274;-79
2021/05/16 02:55:36;;;;;;;8.48;2.72;;;12.30;99.90;;;;;;5073932;28;20294;-78
2021/05/16 02:58:02;;;;;;;9.33;3.17;;;12.30;99.90;;;;;;5071691;28;20198;-81
2021/05/16 03:00:29;;;;;;;8.70;3.23;;;12.30;99.90;;;;;;5069348;28;20457;-82
2021/05/16 03:02:55;;;;;;;9.38;2.97;;;12.30;99.90;;;;;;5078916;28;20701;-81
2021/05/16 03:05:23;;;;;;;8.07;2.67;;;12.30;99.90;;;;;;5074283;28;20596;-79
2021/05/16 03:07:50;;;;;;;4.75;2.25;;;12.30;99.90;;;;;;5069924;28;20469;-79
2021/05/16 03:10:18;;;;;;;7.75;4.18;;;12.30;99.90;;;;;;5075133;28;20196;-80
2021/05/16 03:12:44;;;;;;;7.43;2.87;;;12.30;99.90;;;;;;5075148;28;20230;-82
2021/05/16 03:15:13;;;;;;;8.38;2.33;;;12.30;99.90;;;;;;5070402;28;20910;-81
2021/05/16 03:17:39;;;;;;;5.43;2.40;;;12.30;99.90;;;;;;5068809;28;20212;-80
2021/05/16 03:20:07;;;;;;;5.38;2.30;;;12.30;99.90;;;;;;5075279;28;20216;-79
2021/05/16 03:22:35;;;;;;;8.00;2.60;;;12.30;99.90;;;;;;5072296;28;20507;-79
2021/05/16 03:25:01;;;;;;;5.23;2.70;;;12.30;99.90;;;;;;5075451;28;20204;-81
2021/05/16 03:27:28;;;;;;;4.10;2.25;;;12.30;99.90;;;;;;5074644;28;20532;-81
2021/05/16 03:29:54;;;;;;;5.77;2.90;;;12.30;99.90;;;;;;5074463;28;20236;-81
2021/05/16 03:32:20;;;;;;;3.00;2.53;;;12.30;99.90;;;;;;5078371;28;20497;-80
2021/05/16 03:34:47;;;;;;;14.60;3.20;;;12.30;99.90;;;;;;5074342;28;20462;-80
2021/05/16 03:37:13;;;;;;;5.20;2.97;;;12.30;99.90;;;;;;5074064;28;20663;-80
2021/05/16 03:39:40;;;;;;;7.85;3.35;;;12.30;99.90;;;;;;5074677;28;20200;-79
2021/05/16 03:42:07;;;;;;;5.82;2.90;;;12.30;99.90;;;;;;5068633;28;20203;-80
2021/05/16 03:44:34;;;;;;;6.40;3.05;;;12.20;99.90;;;;;;5069941;28;20204;-80
2021/05/16 03:47:00;;;;;;;7.20;2.70;;;12.20;99.90;;;;;;5070644;28;20560;-79
2021/05/16 03:49:27;;;;;;;7.28;2.88;;;12.20;99.90;;;;;;5076134;28;20663;-79
2021/05/16 03:51:53;;;;;;;8.65;3.25;;;12.20;99.90;;;;;;5072408;28;20219;-79
2021/05/16 03:54:20;;;;;;;6.32;3.10;;;12.20;99.90;;;;;;5071373;28;20226;-81
2021/05/16 03:56:47;;;;;;;9.70;3.80;;;12.20;99.90;;;;;;5070516;28;20311;-80
2021/05/16 03:59:13;;;;;;;8.52;3.45;;;12.20;99.90;;;;;;5068760;28;20703;-80
2021/05/16 04:01:40;;;;;;;8.18;3.75;;;12.20;99.90;;;;;;5083202;28;20659;-81
2021/05/16 04:04:06;;;;;;;11.48;3.13;;;12.20;99.90;;;;;;5078428;28;20195;-81
2021/05/16 04:06:33;;;;;;;7.75;3.10;;;12.20;99.90;;;;;;5073918;28;20195;-80
2021/05/16 04:08:59;;;;;;;9.30;3.88;;;12.20;99.90;;;;;;5072184;28;20457;-79
2021/05/16 04:11:26;;;;;;;6.70;4.10;;;12.10;99.90;;;;;;5078738;28;20223;-80
2021/05/16 04:13:53;;;;;;;10.70;4.17;;;12.20;99.90;;;;;;5081489;28;20551;-80
2021/05/16 04:16:19;;;;;;;8.07;4.30;;;12.20;99.90;;;;;;5073840;28;20684;-82
2021/05/16 04:18:46;;;;;;;7.05;3.47;;;12.20;99.90;;;;;;5072035;28;20220;-81
2021/05/16 04:21:12;;;;;;;6.93;3.85;;;12.20;99.90;;;;;;5080844;28;20302;-80
2021/05/16 04:23:38;;;;;;;8.95;4.10;;;12.20;99.90;;;;;;5076076;28;20200;-80
2021/05/16 04:26:05;;;;;;;8.27;4.00;;;12.30;99.90;;;;;;5070680;28;20197;-80
2021/05/16 04:28:31;;;;;;;6.53;3.50;;;12.30;99.90;;;;;;5072892;28;20196;-79
2021/05/16 04:30:58;;;;;;;10.38;3.63;;;12.30;99.90;;;;;;5079042;28;20704;-80
2021/05/16 04:33:25;;;;;;;7.43;3.45;;;12.30;99.90;;;;;;5081899;28;20200;-81
2021/05/16 04:35:51;;;;;;;16.50;4.28;;;12.30;99.90;;;;;;5074698;28;20193;-80
2021/05/16 04:38:18;;;;;;;10.75;4.63;;;12.30;99.90;;;;;;5078288;28;20250;-81
2021/05/16 04:40:45;;;;;;;9.70;4.15;;;12.40;99.90;;;;;;5077670;28;20557;-80
2021/05/16 04:43:12;;;;;;;9.82;4.15;;;12.40;99.90;;;;;;5077007;28;20235;-81
2021/05/16 04:45:39;;;;;;;7.57;3.10;;;12.40;99.90;;;;;;5075005;28;20617;-81
2021/05/16 04:48:07;;;;;;;7.63;3.72;;;12.40;99.90;;;;;;5072326;28;20468;-79
2021/05/16 04:50:33;;;;;;;9.50;3.20;;;12.50;99.90;;;;;;5073888;28;20288;-79
2021/05/16 04:53:00;;;;;;;8.20;4.47;;;12.50;99.90;;;;;;5080085;28;20544;-80
2021/05/16 04:55:27;;;;;;;4.30;3.10;;;12.50;99.90;;;;;;5072722;28;21038;-80
2021/05/16 04:57:54;;;;;;;11.70;4.05;;;12.60;99.90;;;;;;5074698;28;20458;-81
2021/05/16 05:00:22;;;;;;;7.53;3.27;;;12.60;99.90;;;;;;5075394;28;20203;-79
2021/05/16 05:02:49;;;;;;;4.80;2.83;;;12.60;99.90;;;;;;5079642;28;20975;-81
2021/05/16 05:05:16;;;;;;;9.67;2.70;;;12.70;99.90;;;;;;5075847;28;20477;-82
2021/05/16 05:07:42;;;;;;;6.57;2.93;;;12.70;99.90;;;;;;5074269;28;20454;-79
2021/05/16 05:10:10;;;;;;;9.07;3.30;;;12.70;99.90;;;;;;5071206;28;20984;-82
2021/05/16 05:12:37;;;;;;;5.20;2.93;;;12.70;99.90;;;;;;5071252;28;20512;-79
2021/05/16 05:15:05;;;;;;;8.10;2.90;;;12.80;99.90;;;;;;5077584;28;20942;-80
2021/05/16 05:17:31;;;;;;;5.90;3.00;;;12.80;99.90;;;;;;5079862;28;20478;-79
2021/05/16 05:19:57;;;;;;;7.50;3.03;;;12.80;99.90;;;;;;5071995;28;20683;-82
2021/05/16 05:22:25;;;;;;;13.30;3.40;;;12.90;99.90;;;;;;5077701;28;20796;-79
2021/05/16 05:24:51;;;;;;;10.23;3.70;;;12.90;99.90;;;;;;5073265;28;22456;-79
2021/05/16 05:27:18;;;;;;;5.50;3.20;;;12.90;99.90;;;;;;5072155;28;20519;-82
2021/05/16 05:29:44;;;;;;;7.07;3.27;;;13.00;99.90;;;;;;5078375;28;20506;-79
2021/05/16 05:32:10;;;;;;;7.50;4.00;;;13.00;99.90;;;;;;5078360;28;20491;-79
2021/05/16 05:34:37;;;;;;;6.57;3.63;;;13.00;99.90;;;;;;5070121;28;20450;-80
2021/05/16 05:37:03;;;;;;;8.37;3.20;;;13.00;99.90;;;;;;5077605;28;20463;-81
2021/05/16 05:39:31;;;;;;;5.43;3.30;;;13.00;99.90;;;;;;5067560;28;20462;-81
2021/05/16 05:41:57;;;;;;;7.03;3.20;;;13.00;99.90;;;;;;5078423;28;21170;-78
2021/05/16 05:44:23;;;;;;;7.27;3.50;;;12.90;99.90;;;;;;5074697;28;20978;-80
2021/05/16 05:46:50;;;;;;;11.13;4.97;;;12.90;99.90;;;;;;5074940;28;20455;-79
2021/05/16 05:49:16;;;;;;;7.33;3.33;;;12.90;99.90;;;;;;5069523;28;20465;-80
2021/05/16 05:51:43;;;;;;;5.23;2.70;;;12.90;99.90;;;;;;5073134;28;21189;-78
2021/05/16 05:54:09;;;;;;;7.10;3.40;;;13.00;99.90;;;;;;5074114;28;20607;-80
2021/05/16 05:56:36;;;;;;;7.50;3.27;;;13.00;99.90;;;;;;5079143;28;20461;-79
2021/05/16 05:59:03;;;;;;;8.77;3.60;;;13.00;99.90;;;;;;5075472;28;20461;-79
2021/05/16 06:01:30;;;;;;;6.50;3.37;;;13.00;99.90;;;;;;5075707;28;20908;-77
2021/05/16 06:03:57;;;;;;;7.60;3.30;;;13.00;99.90;;;;;;5078807;28;20499;-77
2021/05/16 06:06:23;;;;;;;9.53;3.87;;;13.00;99.90;;;;;;5079687;28;20463;-77
2021/05/16 06:08:49;;;;;;;13.67;3.73;;;13.00;99.90;;;;;;5075066;28;20482;-80
2021/05/16 06:11:15;;;;;;;9.50;3.57;;;13.00;99.90;;;;;;5074135;28;20458;-77
2021/05/16 06:13:43;;;;;;;5.00;2.90;;;13.00;99.90;;;;;;5070143;28;20461;-78
2021/05/16 06:16:09;;;;;;;7.90;3.53;;;13.00;99.90;;;;;;5074307;28;20458;-78
2021/05/16 06:18:36;;;;;;;11.03;3.50;;;13.10;99.90;;;;;;5080557;28;20453;-79
2021/05/16 06:21:02;;;;;;;7.97;3.50;;;13.10;99.90;;;;;;5072847;28;20521;-77
2021/05/16 06:23:35;;;;;;;8.23;3.70;;;13.10;99.90;;;;;;5068668;28;20954;-76
2021/05/16 06:26:01;;;;;;;6.40;3.30;;;13.10;99.90;;;;;;5076971;28;20443;-80
2021/05/16 06:28:28;;;;;;;9.50;3.30;;;13.10;99.90;;;;;;5069984;28;20455;-77
2021/05/16 06:30:55;;;;;;;7.40;3.83;;;13.10;99.90;;;;;;5076154;28;20496;-77
2021/05/16 06:33:22;;;;;;;13.40;3.60;;;13.10;99.90;;;;;;5069322;28;20524;-78
2021/05/16 06:35:49;;;;;;;7.43;3.47;;;13.20;99.90;;;;;;5075593;28;20469;-79
2021/05/16 06:38:16;;;;;;;9.50;3.50;;;13.20;99.90;;;;;;5076192;28;20541;-78
2021/05/16 06:40:42;;;;;;;6.63;4.10;;;13.30;99.90;;;;;;5069521;28;20512;-78
2021/05/16 06:43:10;;;;;;;6.57;3.47;;;13.30;99.90;;;;;;5076293;28;20468;-80
2021/05/16 06:45:37;;;;;;;9.77;3.83;;;13.30;99.90;;;;;;5078831;28;20474;-78
2021/05/16 06:48:05;;;;;;;10.17;3.70;;;13.30;99.90;;;;;;5069191;28;20442;-78
2021/05/16 06:50:32;;;;;;;9.53;3.50;;;13.20;99.90;;;;;;5077925;28;20812;-78
2021/05/16 06:52:58;;;;;;;17.60;5.13;;;13.30;99.90;;;;;;5071836;28;20510;-78
2021/05/16 06:55:24;;;;;;;11.90;3.43;;;13.30;99.90;;;;;;5070742;28;20513;-79
2021/05/16 06:57:51;;;;;;;12.90;3.73;;;13.30;99.90;;;;;;5075875;28;20476;-78
2021/05/16 07:00:18;;;;;;;6.70;2.80;;;13.30;99.90;;;;;;5070987;28;20457;-78
2021/05/16 07:02:44;;;;;;;13.67;4.37;;;13.40;99.90;;;;;;5065808;28;20658;-78
2021/05/16 07:05:12;;;;;;;5.20;3.03;;;13.40;99.90;;;;;;5074415;28;20507;-78
2021/05/16 07:07:39;;;;;;;9.90;3.73;;;13.40;99.90;;;;;;5080305;28;20458;-77
2021/05/16 07:10:08;;;;;;;8.47;3.27;;;13.40;99.90;;;;;;5070136;28;20837;-78
2021/05/16 07:12:34;;;;;;;4.67;2.90;;;13.50;99.90;;;;;;5071065;28;20483;-79
2021/05/16 07:15:01;;;;;;;7.60;2.90;;;13.50;99.90;;;;;;5077322;28;20949;-78
2021/05/16 07:17:27;;;;;;;9.23;2.90;;;13.60;99.90;;;;;;5070105;28;20514;-78
2021/05/16 07:19:54;;;;;;;6.17;3.23;;;13.70;99.90;;;;;;5071581;28;20534;-78
2021/05/16 07:22:21;;;;;;;8.53;3.00;;;13.70;99.90;;;;;;5072162;28;20946;-78
2021/05/16 07:24:48;;;;;;;6.90;3.07;;;13.80;99.90;;;;;;5069760;28;20966;-79
2021/05/16 07:27:14;;;;;;;6.63;2.50;;;13.90;99.90;;;;;;5073315;28;20481;-78
2021/05/16 07:29:40;;;;;;;8.70;2.40;;;13.90;99.90;;;;;;5069880;28;20556;-78
2021/05/16 07:32:07;;;;;;;5.47;2.60;;;14.00;99.90;;;;;;5071962;28;20942;-78
2021/05/16 07:34:33;;;;;;;5.87;2.40;;;14.00;99.90;;;;;;5072049;28;20988;-78
2021/05/16 07:37:00;;;;;;;7.87;2.40;;;14.10;99.90;;;;;;5075522;28;20466;-78
2021/05/16 07:39:27;;;;;;;6.33;2.17;;;14.10;99.90;;;;;;5076223;28;20463;-78
2021/05/16 07:41:53;;;;;;;7.70;2.30;;;14.10;99.90;;;;;;5070960;28;20573;-78
2021/05/16 07:44:20;;;;;;;8.30;3.40;;;14.10;99.90;;;;;;5078262;28;21443;-78
2021/05/16 07:46:46;;;;;;;7.23;2.27;;;14.20;99.90;;;;;;5074910;28;20451;-80
2021/05/16 07:49:12;;;;;;;7.63;2.83;;;14.20;99.90;;;;;;5077170;28;20456;-80
2021/05/16 07:51:39;;;;;;;6.07;2.13;;;14.20;99.90;;;;;;5072390;28;20478;-80
2021/05/16 07:54:05;;;;;;;5.03;2.43;;;14.20;99.90;;;;;;5070803;28;20515;-80
2021/05/16 07:56:33;;;;;;;5.53;2.77;;;14.20;99.90;;;;;;5074014;28;20572;-78
2021/05/16 07:58:59;;;;;;;6.87;2.67;;;14.30;99.90;;;;;;5075147;28;20468;-79
2021/05/16 08:01:26;;;;;;;6.73;3.23;;;14.30;99.90;;;;;;5086361;28;20483;-81
2021/05/16 08:03:52;;;;;;;9.20;3.63;;;14.40;99.90;;;;;;5069231;28;20950;-79
2021/05/16 08:06:18;;;;;;;3.60;3.00;;;14.40;99.90;;;;;;5073335;28;20459;-79
2021/05/16 08:08:45;;;;;;;7.10;2.70;;;14.40;99.90;;;;;;5075013;28;20455;-79
2021/05/16 08:11:11;;;;;;;8.33;3.10;;;14.50;99.90;;;;;;5072270;28;20561;-80
2021/05/16 08:13:38;;;;;;;10.43;3.60;;;14.50;99.90;;;;;;5075684;28;20805;-80
2021/05/16 08:16:05;;;;;;;10.70;3.40;;;14.50;99.90;;;;;;5078825;28;20546;-80
2021/05/16 08:18:32;;;;;;;14.90;4.30;;;14.50;99.90;;;;;;5074885;28;20546;-80
2021/05/16 08:20:58;;;;;;;8.43;3.67;;;14.60;99.90;;;;;;5074309;28;20569;-82
2021/05/16 08:23:24;;;;;;;9.30;4.40;;;14.60;99.90;;;;;;5077259;28;21317;-80
2021/05/16 08:25:51;;;;;;;6.83;2.90;;;14.60;99.90;;;;;;5075786;28;20562;-79
2021/05/16 08:28:18;;;;;;;7.30;2.90;;;14.60;99.90;;;;;;5074994;28;20462;-80
2021/05/16 08:30:46;;;;;;;8.20;3.20;;;14.60;99.90;;;;;;5071619;28;20471;-79
2021/05/16 08:33:12;;;;;;;11.60;4.53;;;14.70;99.90;;;;;;5074992;28;20877;-81
2021/05/16 08:35:39;;;;;;;6.27;2.97;;;14.80;99.90;;;;;;5074876;28;20472;-80
2021/05/16 08:38:05;;;;;;;7.73;3.50;;;15.00;99.90;;;;;;5077935;28;20455;-81
2021/05/16 08:40:32;;;;;;;7.27;3.00;;;15.20;99.90;;;;;;5075277;28;20795;-80
2021/05/16 08:43:00;;;;;;;7.53;2.80;;;15.30;99.90;;;;;;5075275;28;20951;-80
2021/05/16 08:45:27;;;;;;;6.77;3.80;;;15.30;99.90;;;;;;5073944;28;20505;-80
2021/05/16 08:47:54;;;;;;;10.13;4.10;;;15.30;99.90;;;;;;5074497;28;20483;-80
2021/05/16 08:50:20;;;;;;;8.57;3.27;;;15.30;99.90;;;;;;5068224;28;20512;-78
2021/05/16 08:52:47;;;;;;;10.50;3.57;;;15.10;99.90;;;;;;5073630;28;20571;-76
2021/05/16 08:55:15;;;;;;;8.03;3.83;;;15.10;99.90;;;;;;5072780;28;20497;-76
2021/05/16 08:57:42;;;;;;;4.03;2.70;;;15.00;99.90;;;;;;5078279;28;20467;-77
2021/05/16 09:00:12;;;;;;;5.23;3.33;;;14.90;99.90;;;;;;5075880;28;20445;-77
2021/05/16 09:03:01;;;;;;;4.13;2.47;;;14.70;99.90;;;;;;5073593;28;20549;-78
2021/05/16 09:05:30;;;;;;;13.40;4.07;;;14.70;99.90;;;;;;5071206;28;20461;-77
2021/05/16 09:08:00;;;;;;;7.50;3.07;;;14.70;99.90;;;;;;5073732;28;20451;-77
2021/05/16 09:10:26;;;;;;;4.50;2.37;;;14.90;99.90;;;;;;5073693;28;20883;-78
2021/05/16 09:13:06;;;;;;;4.57;2.50;;;15.00;99.90;;;;;;5074569;28;20580;-78
2021/05/16 09:15:32;;;;;;;5.73;2.80;;;15.10;99.90;;;;;;5077355;28;20454;-78
2021/05/16 09:17:59;;;;;;;10.30;3.07;;;15.30;99.90;;;;;;5074978;28;20566;-79
2021/05/16 09:20:26;;;;;;;7.60;3.60;;;15.40;99.90;;;;;;5074762;28;20480;-79
2021/05/16 09:22:52;;;;;;;7.77;2.63;;;15.50;99.90;;;;;;5073279;28;20547;-79
2021/05/16 09:25:22;;;;;;;5.20;3.07;;;15.50;99.90;;;;;;5073108;28;20545;-81
2021/05/16 09:27:51;;;;;;;6.03;2.90;;;15.40;99.90;;;;;;5077315;28;20474;-81
2021/05/16 09:30:26;;;;;;;11.83;3.70;;;15.40;99.90;;;;;;5077683;28;20466;-80
2021/05/16 09:32:55;;;;;;;3.47;2.13;;;15.40;99.90;;;;;;5071343;28;20521;-79
2021/05/16 09:35:28;;;;;;;4.30;1.80;;;15.30;99.90;;;;;;5076107;28;21295;-80
2021/05/16 09:37:57;;;;;;;3.67;2.03;;;15.10;99.90;;;;;;5074328;28;20478;-78
2021/05/16 09:40:24;;;;;;;1.70;1.60;;;14.90;99.90;;;;;;5079468;28;20463;-79
2021/05/16 09:43:06;;;;;;;2.30;1.60;;;14.80;99.90;;;;;;5073920;28;20469;-78
2021/05/16 09:45:43;;;;;;;5.77;2.10;;;14.70;99.90;;;;;;5073291;28;20466;-77
2021/05/16 09:48:31;;;;;;;2.80;1.90;;;14.70;99.90;;;;;;5075674;28;20533;-78
2021/05/16 09:51:21;;;;;;;4.73;2.07;;;14.60;99.90;;;;;;5079412;28;20496;-79
2021/05/16 09:53:57;;;;;;;3.77;2.27;;;14.50;99.90;;;;;;5068558;28;20496;-78
2021/05/16 09:56:25;;;;;;;3.37;1.90;;;14.40;99.90;;;;;;5070498;28;20942;-78
2021/05/16 09:58:53;;;;;;;2.40;1.60;;;14.40;99.90;;;;;;5070825;28;22242;-77
2021/05/16 10:01:22;;;;;;;2.23;1.67;;;14.50;99.90;;;;;;5072675;28;20492;-79
2021/05/16 10:03:49;;;;;;;2.80;2.20;;;14.60;99.90;;;;;;5077182;28;20477;-78
2021/05/16 10:06:17;;;;;;;1.87;1.77;;;14.70;99.90;;;;;;5066958;28;20465;-79
2021/05/16 10:08:47;;;;;;;2.33;2.13;;;14.90;99.90;;;;;;5073270;28;20510;-80
2021/05/16 10:11:14;;;;;;;4.00;2.10;;;15.10;99.90;;;;;;5071361;28;20513;-82
2021/05/16 10:13:46;;;;;;;5.67;2.67;;;15.30;99.90;;;;;;5066682;28;20489;-78
2021/05/16 10:16:16;;;;;;;4.60;2.40;;;15.40;99.90;;;;;;5069211;28;20884;-78
2021/05/16 10:18:45;;;;;;;8.40;2.70;;;15.50;99.90;;;;;;5071216;28;20797;-79
2021/05/16 10:21:12;;;;;;;3.93;2.17;;;15.70;99.90;;;;;;5074124;28;20488;-80
2021/05/16 10:23:40;;;;;;;6.47;2.93;;;15.80;99.90;;;;;;5068151;28;20486;-79
2021/05/16 10:26:21;;;;;;;5.77;3.07;;;15.80;99.90;;;;;;5074155;28;20479;-79
2021/05/16 10:29:06;;;;;;;6.10;2.43;;;15.90;99.90;;;;;;5070286;28;21139;-79
2021/05/16 10:31:50;;;;;;;7.43;3.10;;;16.00;99.90;;;;;;5073837;28;20837;-80
2021/05/16 10:34:44;;;;;;;10.70;2.80;;;16.10;99.90;;;;;;5070653;28;20457;-78
2021/05/16 10:37:42;;;;;;;7.23;3.43;;;16.20;99.90;;;;;;5069209;28;20458;-79
2021/05/16 10:40:27;;;;;;;5.30;2.87;;;16.20;99.90;;;;;;5073060;28;20581;-81
2021/05/16 10:42:55;;;;;;;6.73;3.07;;;16.30;99.90;;;;;;5065378;28;20450;-81
2021/05/16 10:45:23;;;;;;;6.23;2.87;;;16.30;99.90;;;;;;5070926;28;20471;-82
2021/05/16 10:47:59;;;;;;;4.10;2.23;;;16.30;99.90;;;;;;5077082;28;20455;-80
2021/05/16 10:50:38;;;;;;;7.43;2.23;;;16.40;99.90;;;;;;5076652;28;20465;-81
2021/05/16 10:53:06;;;;;;;8.50;2.57;;;16.50;99.90;;;;;;5071829;28;20478;-81
2021/05/16 10:55:36;;;;;;;7.00;2.60;;;16.50;99.90;;;;;;5074594;28;20473;-82
2021/05/16 10:58:03;;;;;;;3.80;2.43;;;16.70;99.90;;;;;;5075567;28;20454;-82
2021/05/16 11:00:31;;;;;;;4.73;3.03;;;16.90;99.90;;;;;;5073876;28;20523;-82
2021/05/16 11:03:02;;;;;;;4.90;2.23;;;17.10;99.90;;;;;;5079040;28;20987;-82
2021/05/16 11:05:55;;;;;;;4.27;1.90;;;17.20;99.90;;;;;;5065803;28;20947;-82
2021/05/16 11:09:08;;;;;;;5.13;2.17;;;17.10;99.90;;;;;;5071107;28;20450;-83
2021/05/16 11:11:38;;;;;;;3.10;2.07;;;17.10;99.90;;;;;;5066689;28;20972;-83
2021/05/16 11:14:14;;;;;;;4.97;2.50;;;17.10;99.90;;;;;;5069461;28;20466;-81
2021/05/16 11:16:48;;;;;;;6.80;2.40;;;17.00;99.90;;;;;;5067512;28;20563;-80
2021/05/16 11:19:15;;;;;;;9.63;2.60;;;16.90;99.90;;;;;;5073076;28;20461;-81
2021/05/16 11:21:42;;;;;;;5.30;3.00;;;16.90;99.90;;;;;;5076218;28;20474;-81
2021/05/16 11:24:09;;;;;;;6.77;2.20;;;17.00;99.90;;;;;;5078468;28;20454;-81
2021/05/16 11:26:36;;;;;;;3.90;1.97;;;17.10;99.90;;;;;;5072419;28;20551;-82
2021/05/16 11:29:04;;;;;;;6.80;2.60;;;17.10;99.90;;;;;;5071875;28;20490;-82
2021/05/16 11:31:33;;;;;;;4.67;2.83;;;17.30;99.90;;;;;;5071626;28;20573;-81
2021/05/16 11:34:01;;;;;;;9.40;2.80;;;17.30;99.90;;;;;;5075389;28;20500;-82
2021/05/16 11:36:30;;;;;;;4.73;2.53;;;17.30;99.90;;;;;;5077138;28;20457;-80
2021/05/16 11:38:58;;;;;;;5.20;2.70;;;17.30;99.60;;;;;;5073652;28;20463;-83
2021/05/16 11:41:31;;;;;;;4.80;2.47;;;17.40;99.90;;;;;;5072556;28;20463;-81
2021/05/16 11:43:59;;;;;;;6.33;2.43;;;17.50;99.90;;;;;;5074049;28;20454;-81
2021/05/16 11:46:28;;;;;;;4.57;2.00;;;17.80;99.90;;;;;;5071237;28;20950;-82
2021/05/16 11:48:54;;;;;;;5.27;1.90;;;18.00;99.90;;;;;;5076572;28;20494;-82
2021/05/16 11:51:21;;;;;;;6.33;2.97;;;18.10;99.90;;;;;;5066724;28;20873;-82
2021/05/16 11:53:53;;;;;;;5.97;1.90;;;18.10;99.70;;;;;;5069745;28;20470;-80
2021/05/16 11:56:21;;;;;;;5.50;2.60;;;18.00;99.30;;;;;;5072247;28;20463;-80
2021/05/16 11:58:53;;;;;;;5.20;1.80;;;18.00;99.10;;;;;;5070274;28;20542;-80
2021/05/16 12:01:21;;;;;;;3.27;1.90;;;17.90;98.90;;;;;;5076937;28;20500;-81
2021/05/16 12:04:01;;;;;;;2.90;1.83;;;17.90;98.40;;;;;;5071763;28;20507;-82
2021/05/16 12:06:29;;;;;;;7.47;1.63;;;17.80;98.00;;;;;;5074116;28;20548;-82
2021/05/16 12:09:06;;;;;;;3.33;2.17;;;17.80;97.80;;;;;;5073227;28;20549;-81
2021/05/16 12:11:34;;;;;;;2.20;2.00;;;17.80;97.60;;;;;;5065558;28;20555;-80
2021/05/16 12:14:05;;;;;;;2.63;1.50;;;17.90;97.80;;;;;;5073350;28;20574;-79
2021/05/16 12:16:32;;;;;;;6.70;2.00;;;18.00;98.30;;;;;;5075771;28;20471;-80
2021/05/16 12:18:58;;;;;;;6.83;2.30;;;18.10;98.30;;;;;;5064657;28;20458;-81
2021/05/16 12:21:25;;;;;;;2.23;1.50;;;18.20;98.50;;;;;;5069801;28;20536;-80
2021/05/16 12:23:54;;;;;;;2.50;1.90;;;18.30;98.50;;;;;;5076624;28;20484;-81
2021/05/16 12:26:21;;;;;;;1.80;1.70;;;18.30;98.10;;;;;;5082374;28;20617;-79
2021/05/16 12:28:48;;;;;;;5.33;1.63;;;18.30;97.90;;;;;;5075330;28;20490;-79
2021/05/16 12:31:14;;;;;;;4.83;1.70;;;18.40;98.20;;;;;;5074636;28;20458;-81
2021/05/16 12:33:42;;;;;;;4.03;2.00;;;18.40;98.00;;;;;;5071460;28;20499;-81
2021/05/16 12:36:09;;;;;;;1.93;1.73;;;18.30;97.60;;;;;;5071895;28;20534;-80
2021/05/16 12:38:47;;;;;;;4.30;1.87;;;18.20;97.30;;;;;;5074855;28;20796;-80
2021/05/16 12:41:16;;;;;;;4.50;1.87;;;18.10;97.50;;;;;;5068891;28;20841;-80
2021/05/16 12:43:43;;;;;;;2.83;1.63;;;17.90;97.30;;;;;;5069464;28;20461;-80
2021/05/16 12:46:09;;;;;;;4.60;2.33;;;17.80;97.20;;;;;;5071468;28;21404;-77
2021/05/16 12:48:38;;;;;;;6.23;2.43;;;17.60;98.50;;;;;;5071391;28;21033;-77
2021/05/16 12:51:07;;;;;;;3.20;2.00;;;17.40;99.90;;;;;;5076552;28;20470;-77